sensor_id;sensor_type;location;lat;lon;timestamp;pressure;altitude;pressure_sealevel;temperature;humidity
42411;BME280;28056;51.112;0.984;2022-12-04T00:00:10;100691.53;;;9.22;49.93
42411;BME280;28056;51.112;0.984;2022-12-04T00:02:39;100690.36;;;8.79;49.90
42411;BME280;28056;51.112;0.984;2022-12-04T00:05:07;100687.77;;;9.24;50.01
42411;BME280;28056;51.112;0.984;2022-12-04T00:07:35;100683.96;;;9.26;50.23
42411;BME280;28056;51.112;0.984;2022-12-04T00:10:03;100679.96;;;9.27;50.29
42411;BME280;28056;51.112;0.984;2022-12-04T00:12:30;100676.81;;;9.05;50.50
42411;BME280;28056;51.112;0.984;2022-12-04T00:14:57;100678.01;;;8.96;50.15
42411;BME280;28056;51.112;0.984;2022-12-04T00:17:25;100677.07;;;8.76;50.39
42411;BME280;28056;51.112;0.984;2022-12-04T00:19:52;100675.16;;;9.18;50.24
42411;BME280;28056;51.112;0.984;2022-12-04T00:22:19;100672.73;;;8.90;50.19
42411;BME280;28056;51.112;0.984;2022-12-04T00:24:46;100671.42;;;9.10;50.47
42411;BME280;28056;51.112;0.984;2022-12-04T00:27:14;100670.66;;;9.09;50.50
42411;BME280;28056;51.112;0.984;2022-12-04T00:29:42;100670.56;;;9.09;50.91
42411;BME280;28056;51.112;0.984;2022-12-04T00:32:09;100670.14;;;9.13;51.21
42411;BME280;28056;51.112;0.984;2022-12-04T00:34:36;100672.94;;;8.87;51.11
42411;BME280;28056;51.112;0.984;2022-12-04T00:37:04;100675.30;;;8.67;50.98
42411;BME280;28056;51.112;0.984;2022-12-04T00:39:31;100674.07;;;8.88;51.03
42411;BME280;28056;51.112;0.984;2022-12-04T00:41:59;100673.19;;;9.13;50.86
42411;BME280;28056;51.112;0.984;2022-12-04T00:44:26;100670.05;;;8.75;51.56
42411;BME280;28056;51.112;0.984;2022-12-04T00:46:53;100668.02;;;8.77;51.19
42411;BME280;28056;51.112;0.984;2022-12-04T00:49:20;100664.53;;;9.26;51.20
42411;BME280;28056;51.112;0.984;2022-12-04T00:51:48;100663.48;;;8.82;51.01
42411;BME280;28056;51.112;0.984;2022-12-04T00:54:15;100660.17;;;9.01;51.00
42411;BME280;28056;51.112;0.984;2022-12-04T00:56:43;100658.19;;;8.79;50.80
42411;BME280;28056;51.112;0.984;2022-12-04T00:59:10;100656.49;;;8.81;50.89
42411;BME280;28056;51.112;0.984;2022-12-04T01:04:47;100649.82;;;9.04;49.89
42411;BME280;28056;51.112;0.984;2022-12-04T01:07:14;100644.97;;;9.23;49.46
42411;BME280;28056;51.112;0.984;2022-12-04T01:09:42;100644.33;;;9.15;49.90
42411;BME280;28056;51.112;0.984;2022-12-04T01:12:09;100642.27;;;9.06;49.86
42411;BME280;28056;51.112;0.984;2022-12-04T01:14:36;100643.21;;;8.99;49.93
42411;BME280;28056;51.112;0.984;2022-12-04T01:17:04;100641.31;;;8.92;50.19
42411;BME280;28056;51.112;0.984;2022-12-04T01:19:31;100643.10;;;8.87;50.45
42411;BME280;28056;51.112;0.984;2022-12-04T01:21:58;100641.67;;;8.87;50.56
42411;BME280;28056;51.112;0.984;2022-12-04T01:24:25;100641.94;;;9.27;50.45
42411;BME280;28056;51.112;0.984;2022-12-04T01:26:53;100638.33;;;8.80;50.34
42411;BME280;28056;51.112;0.984;2022-12-04T01:29:20;100639.32;;;8.72;50.24
42411;BME280;28056;51.112;0.984;2022-12-04T01:31:48;100633.39;;;8.80;49.95
42411;BME280;28056;51.112;0.984;2022-12-04T01:34:16;100630.28;;;9.22;51.12
42411;BME280;28056;51.112;0.984;2022-12-04T01:36:43;100634.34;;;9.24;50.87
42411;BME280;28056;51.112;0.984;2022-12-04T01:39:10;100632.74;;;8.97;50.76
42411;BME280;28056;51.112;0.984;2022-12-04T01:41:38;100630.13;;;9.15;50.62
42411;BME280;28056;51.112;0.984;2022-12-04T01:44:09;100628.17;;;8.70;50.57
42411;BME280;28056;51.112;0.984;2022-12-04T01:46:37;100627.83;;;8.69;50.43
42411;BME280;28056;51.112;0.984;2022-12-04T01:49:06;100629.34;;;8.79;50.48
42411;BME280;28056;51.112;0.984;2022-12-04T01:51:37;100625.49;;;8.73;50.01
42411;BME280;28056;51.112;0.984;2022-12-04T01:54:09;100625.68;;;8.94;50.21
42411;BME280;28056;51.112;0.984;2022-12-04T01:56:41;100626.10;;;8.75;50.50
42411;BME280;28056;51.112;0.984;2022-12-04T01:59:12;100625.36;;;8.78;50.34
42411;BME280;28056;51.112;0.984;2022-12-04T02:01:48;100624.33;;;9.03;50.37
42411;BME280;28056;51.112;0.984;2022-12-04T02:04:19;100622.78;;;8.82;50.24
42411;BME280;28056;51.112;0.984;2022-12-04T02:06:47;100622.00;;;9.01;50.18
42411;BME280;28056;51.112;0.984;2022-12-04T02:09:14;100618.06;;;8.84;50.58
42411;BME280;28056;51.112;0.984;2022-12-04T02:11:47;100618.85;;;9.01;50.07
42411;BME280;28056;51.112;0.984;2022-12-04T02:14:23;100618.97;;;8.61;50.65
42411;BME280;28056;51.112;0.984;2022-12-04T02:16:58;100621.03;;;8.72;49.61
42411;BME280;28056;51.112;0.984;2022-12-04T02:20:21;100614.73;;;8.90;49.75
42411;BME280;28056;51.112;0.984;2022-12-04T02:24:01;100612.61;;;8.66;49.97
42411;BME280;28056;51.112;0.984;2022-12-04T02:26:40;100609.68;;;8.74;49.65
42411;BME280;28056;51.112;0.984;2022-12-04T02:29:18;100607.39;;;9.01;49.94
42411;BME280;28056;51.112;0.984;2022-12-04T02:31:52;100605.52;;;9.00;50.33
42411;BME280;28056;51.112;0.984;2022-12-04T02:34:25;100611.89;;;8.53;49.98
42411;BME280;28056;51.112;0.984;2022-12-04T02:36:57;100612.05;;;8.72;49.98
42411;BME280;28056;51.112;0.984;2022-12-04T02:39:33;100610.61;;;8.97;50.40
42411;BME280;28056;51.112;0.984;2022-12-04T02:42:08;100609.06;;;8.53;50.18
42411;BME280;28056;51.112;0.984;2022-12-04T02:44:40;100607.47;;;8.96;50.30
42411;BME280;28056;51.112;0.984;2022-12-04T02:47:12;100608.99;;;8.69;50.21
42411;BME280;28056;51.112;0.984;2022-12-04T02:49:45;100610.81;;;8.74;50.37
42411;BME280;28056;51.112;0.984;2022-12-04T02:52:16;100609.35;;;9.01;50.53
42411;BME280;28056;51.112;0.984;2022-12-04T02:54:47;100614.47;;;8.78;50.39
42411;BME280;28056;51.112;0.984;2022-12-04T02:57:20;100618.04;;;8.98;50.33
42411;BME280;28056;51.112;0.984;2022-12-04T02:59:50;100616.03;;;9.01;50.72
42411;BME280;28056;51.112;0.984;2022-12-04T03:02:23;100616.50;;;8.70;50.27
42411;BME280;28056;51.112;0.984;2022-12-04T03:04:54;100617.26;;;8.94;50.32
42411;BME280;28056;51.112;0.984;2022-12-04T03:07:27;100616.45;;;8.95;50.86
42411;BME280;28056;51.112;0.984;2022-12-04T03:09:59;100619.96;;;8.72;50.70
42411;BME280;28056;51.112;0.984;2022-12-04T03:12:34;100617.49;;;8.90;50.82
42411;BME280;28056;51.112;0.984;2022-12-04T03:15:07;100615.95;;;8.80;50.22
42411;BME280;28056;51.112;0.984;2022-12-04T03:17:43;100617.34;;;8.29;49.59
42411;BME280;28056;51.112;0.984;2022-12-04T03:20:13;100617.13;;;8.80;50.63
42411;BME280;28056;51.112;0.984;2022-12-04T03:22:43;100613.86;;;8.59;49.89
42411;BME280;28056;51.112;0.984;2022-12-04T03:25:12;100610.87;;;8.81;49.56
42411;BME280;28056;51.112;0.984;2022-12-04T03:27:45;100612.13;;;8.86;50.24
42411;BME280;28056;51.112;0.984;2022-12-04T03:30:16;100609.21;;;8.61;50.63
42411;BME280;28056;51.112;0.984;2022-12-04T03:32:51;100612.79;;;8.94;50.71
42411;BME280;28056;51.112;0.984;2022-12-04T03:35:24;100615.24;;;8.74;50.66
42411;BME280;28056;51.112;0.984;2022-12-04T03:37:57;100612.77;;;9.01;50.03
42411;BME280;28056;51.112;0.984;2022-12-04T03:40:30;100611.42;;;8.82;50.71
42411;BME280;28056;51.112;0.984;2022-12-04T03:43:03;100614.73;;;8.77;50.40
42411;BME280;28056;51.112;0.984;2022-12-04T03:45:38;100615.16;;;8.74;50.70
42411;BME280;28056;51.112;0.984;2022-12-04T03:48:14;100617.30;;;8.26;49.23
42411;BME280;28056;51.112;0.984;2022-12-04T03:50:48;100616.47;;;8.16;48.32
42411;BME280;28056;51.112;0.984;2022-12-04T03:53:23;100616.34;;;8.32;48.24
42411;BME280;28056;51.112;0.984;2022-12-04T03:55:55;100613.15;;;8.53;48.56
42411;BME280;28056;51.112;0.984;2022-12-04T03:58:29;100611.67;;;8.39;49.01
42411;BME280;28056;51.112;0.984;2022-12-04T04:00:59;100609.63;;;8.16;49.17
42411;BME280;28056;51.112;0.984;2022-12-04T04:03:29;100612.10;;;8.54;48.85
42411;BME280;28056;51.112;0.984;2022-12-04T04:06:00;100607.03;;;8.34;48.92
42411;BME280;28056;51.112;0.984;2022-12-04T04:08:33;100606.05;;;8.37;49.78
42411;BME280;28056;51.112;0.984;2022-12-04T04:11:08;100602.78;;;8.43;50.19
42411;BME280;28056;51.112;0.984;2022-12-04T04:13:39;100605.47;;;8.22;48.83
42411;BME280;28056;51.112;0.984;2022-12-04T04:16:13;100604.81;;;8.40;48.64
42411;BME280;28056;51.112;0.984;2022-12-04T04:18:43;100605.91;;;8.66;49.79
42411;BME280;28056;51.112;0.984;2022-12-04T04:21:12;100608.26;;;8.14;48.95
42411;BME280;28056;51.112;0.984;2022-12-04T04:23:46;100607.75;;;8.48;48.69
42411;BME280;28056;51.112;0.984;2022-12-04T04:26:15;100609.17;;;8.38;49.27
42411;BME280;28056;51.112;0.984;2022-12-04T04:28:45;100610.36;;;8.36;49.02
42411;BME280;28056;51.112;0.984;2022-12-04T04:31:20;100613.20;;;8.32;48.99
42411;BME280;28056;51.112;0.984;2022-12-04T04:33:56;100610.75;;;8.33;49.12
42411;BME280;28056;51.112;0.984;2022-12-04T04:36:36;100617.06;;;8.13;49.05
42411;BME280;28056;51.112;0.984;2022-12-04T04:39:12;100620.79;;;8.07;48.44
42411;BME280;28056;51.112;0.984;2022-12-04T04:41:48;100623.28;;;7.99;48.76
42411;BME280;28056;51.112;0.984;2022-12-04T04:44:23;100623.49;;;8.35;49.58
42411;BME280;28056;51.112;0.984;2022-12-04T04:46:57;100621.74;;;8.17;49.30
42411;BME280;28056;51.112;0.984;2022-12-04T04:49:28;100621.98;;;8.40;49.19
42411;BME280;28056;51.112;0.984;2022-12-04T04:51:59;100615.67;;;8.46;49.39
42411;BME280;28056;51.112;0.984;2022-12-04T04:54:29;100613.72;;;8.43;49.05
42411;BME280;28056;51.112;0.984;2022-12-04T04:56:57;100618.41;;;8.21;48.82
42411;BME280;28056;51.112;0.984;2022-12-04T04:59:25;100622.05;;;8.39;48.97
42411;BME280;28056;51.112;0.984;2022-12-04T05:01:53;100628.76;;;8.19;49.02
42411;BME280;28056;51.112;0.984;2022-12-04T05:04:20;100628.62;;;8.45;49.51
42411;BME280;28056;51.112;0.984;2022-12-04T05:06:47;100628.87;;;8.29;49.10
42411;BME280;28056;51.112;0.984;2022-12-04T05:09:14;100630.01;;;8.52;49.24
42411;BME280;28056;51.112;0.984;2022-12-04T05:11:41;100631.40;;;8.33;49.32
42411;BME280;28056;51.112;0.984;2022-12-04T05:14:08;100630.71;;;8.37;49.29
42411;BME280;28056;51.112;0.984;2022-12-04T05:16:35;100629.71;;;8.48;50.00
42411;BME280;28056;51.112;0.984;2022-12-04T05:19:04;100630.61;;;8.69;49.67
42411;BME280;28056;51.112;0.984;2022-12-04T05:21:33;100631.79;;;8.47;49.32
42411;BME280;28056;51.112;0.984;2022-12-04T05:24:01;100632.22;;;8.50;49.15
42411;BME280;28056;51.112;0.984;2022-12-04T05:26:28;100634.18;;;8.55;49.53
42411;BME280;28056;51.112;0.984;2022-12-04T05:28:56;100632.45;;;8.54;49.85
42411;BME280;28056;51.112;0.984;2022-12-04T05:31:23;100634.23;;;8.44;49.08
42411;BME280;28056;51.112;0.984;2022-12-04T05:33:50;100634.55;;;8.45;49.61
42411;BME280;28056;51.112;0.984;2022-12-04T05:36:18;100635.83;;;8.34;49.08
42411;BME280;28056;51.112;0.984;2022-12-04T05:38:46;100636.70;;;8.25;48.26
42411;BME280;28056;51.112;0.984;2022-12-04T05:41:13;100635.78;;;8.18;48.34
42411;BME280;28056;51.112;0.984;2022-12-04T05:43:40;100632.83;;;8.33;49.37
42411;BME280;28056;51.112;0.984;2022-12-04T05:46:09;100631.71;;;8.27;49.53
42411;BME280;28056;51.112;0.984;2022-12-04T05:48:36;100632.30;;;8.24;49.08
42411;BME280;28056;51.112;0.984;2022-12-04T05:51:05;100629.22;;;7.85;48.66
42411;BME280;28056;51.112;0.984;2022-12-04T05:53:32;100625.92;;;8.38;48.17
42411;BME280;28056;51.112;0.984;2022-12-04T05:56:02;100625.66;;;8.22;49.13
42411;BME280;28056;51.112;0.984;2022-12-04T05:58:32;100623.80;;;7.95;48.12
42411;BME280;28056;51.112;0.984;2022-12-04T06:00:59;100625.67;;;8.00;48.22
42411;BME280;28056;51.112;0.984;2022-12-04T06:03:27;100624.30;;;8.23;48.46
42411;BME280;28056;51.112;0.984;2022-12-04T06:05:54;100626.43;;;8.26;48.61
42411;BME280;28056;51.112;0.984;2022-12-04T06:08:22;100627.59;;;8.49;48.93
42411;BME280;28056;51.112;0.984;2022-12-04T06:10:49;100627.77;;;8.25;48.34
42411;BME280;28056;51.112;0.984;2022-12-04T06:13:16;100629.26;;;8.28;48.49
42411;BME280;28056;51.112;0.984;2022-12-04T06:15:43;100625.95;;;8.09;48.65
42411;BME280;28056;51.112;0.984;2022-12-04T06:18:11;100625.23;;;8.35;48.98
42411;BME280;28056;51.112;0.984;2022-12-04T06:20:38;100625.95;;;8.35;48.86
42411;BME280;28056;51.112;0.984;2022-12-04T06:23:05;100629.16;;;8.15;48.73
42411;BME280;28056;51.112;0.984;2022-12-04T06:25:33;100624.45;;;8.52;48.47
42411;BME280;28056;51.112;0.984;2022-12-04T06:28:01;100627.16;;;8.21;49.08
42411;BME280;28056;51.112;0.984;2022-12-04T06:30:29;100627.12;;;8.42;48.80
42411;BME280;28056;51.112;0.984;2022-12-04T06:32:56;100627.61;;;8.29;49.47
42411;BME280;28056;51.112;0.984;2022-12-04T06:35:23;100628.63;;;8.28;49.13
42411;BME280;28056;51.112;0.984;2022-12-04T06:37:50;100628.17;;;8.33;49.49
42411;BME280;28056;51.112;0.984;2022-12-04T06:40:18;100626.43;;;8.02;48.88
42411;BME280;28056;51.112;0.984;2022-12-04T06:42:45;100623.94;;;8.38;49.30
42411;BME280;28056;51.112;0.984;2022-12-04T06:45:12;100626.62;;;8.45;49.92
42411;BME280;28056;51.112;0.984;2022-12-04T06:47:39;100625.73;;;8.29;48.78
42411;BME280;28056;51.112;0.984;2022-12-04T06:50:08;100627.11;;;8.33;48.79
42411;BME280;28056;51.112;0.984;2022-12-04T06:52:35;100627.86;;;8.42;50.22
42411;BME280;28056;51.112;0.984;2022-12-04T06:55:02;100631.29;;;8.35;48.79
42411;BME280;28056;51.112;0.984;2022-12-04T06:57:30;100631.13;;;8.46;48.59
42411;BME280;28056;51.112;0.984;2022-12-04T06:59:58;100636.83;;;8.22;48.12
42411;BME280;28056;51.112;0.984;2022-12-04T07:02:25;100635.74;;;8.28;48.97
42411;BME280;28056;51.112;0.984;2022-12-04T07:04:54;100638.97;;;8.33;49.30
42411;BME280;28056;51.112;0.984;2022-12-04T07:07:21;100637.02;;;8.44;50.00
42411;BME280;28056;51.112;0.984;2022-12-04T07:09:48;100638.67;;;8.25;48.82
42411;BME280;28056;51.112;0.984;2022-12-04T07:12:16;100642.02;;;8.44;50.72
42411;BME280;28056;51.112;0.984;2022-12-04T07:14:43;100638.37;;;8.36;49.37
42411;BME280;28056;51.112;0.984;2022-12-04T07:17:11;100640.54;;;8.33;49.28
42411;BME280;28056;51.112;0.984;2022-12-04T07:19:39;100642.03;;;8.29;49.01
42411;BME280;28056;51.112;0.984;2022-12-04T07:22:06;100645.48;;;8.05;48.31
42411;BME280;28056;51.112;0.984;2022-12-04T07:24:34;100650.15;;;8.08;48.62
42411;BME280;28056;51.112;0.984;2022-12-04T07:27:02;100649.07;;;7.94;48.79
42411;BME280;28056;51.112;0.984;2022-12-04T07:29:30;100654.75;;;8.11;48.63
42411;BME280;28056;51.112;0.984;2022-12-04T07:31:58;100658.80;;;8.20;48.67
42411;BME280;28056;51.112;0.984;2022-12-04T07:34:26;100655.79;;;7.79;50.05
42411;BME280;28056;51.112;0.984;2022-12-04T07:36:53;100656.99;;;7.57;48.75
42411;BME280;28056;51.112;0.984;2022-12-04T07:39:20;100659.54;;;6.73;49.49
42411;BME280;28056;51.112;0.984;2022-12-04T07:41:48;100664.35;;;6.45;50.22
42411;BME280;28056;51.112;0.984;2022-12-04T07:44:15;100667.10;;;5.87;51.52
42411;BME280;28056;51.112;0.984;2022-12-04T07:46:42;100669.53;;;5.61;51.45
42411;BME280;28056;51.112;0.984;2022-12-04T07:49:10;100670.73;;;5.53;52.43
42411;BME280;28056;51.112;0.984;2022-12-04T07:51:38;100668.98;;;6.26;51.50
42411;BME280;28056;51.112;0.984;2022-12-04T07:54:05;100670.76;;;5.71;51.87
42411;BME280;28056;51.112;0.984;2022-12-04T07:56:33;100672.91;;;5.07;53.19
42411;BME280;28056;51.112;0.984;2022-12-04T07:59:01;100674.59;;;5.77;52.46
42411;BME280;28056;51.112;0.984;2022-12-04T08:01:30;100677.49;;;5.77;51.90
42411;BME280;28056;51.112;0.984;2022-12-04T08:03:58;100677.70;;;5.88;52.19
42411;BME280;28056;51.112;0.984;2022-12-04T08:06:28;100677.27;;;6.15;51.94
42411;BME280;28056;51.112;0.984;2022-12-04T08:08:55;100674.87;;;5.07;52.94
42411;BME280;28056;51.112;0.984;2022-12-04T08:11:24;100674.69;;;6.14;51.60
42411;BME280;28056;51.112;0.984;2022-12-04T08:13:53;100677.33;;;5.73;52.30
42411;BME280;28056;51.112;0.984;2022-12-04T08:16:21;100682.34;;;6.15;52.42
42411;BME280;28056;51.112;0.984;2022-12-04T08:18:48;100680.05;;;5.76;52.23
42411;BME280;28056;51.112;0.984;2022-12-04T08:21:18;100685.64;;;5.93;52.47
42411;BME280;28056;51.112;0.984;2022-12-04T08:23:47;100691.55;;;5.52;52.98
42411;BME280;28056;51.112;0.984;2022-12-04T08:26:16;100692.85;;;5.95;53.11
42411;BME280;28056;51.112;0.984;2022-12-04T08:28:44;100692.90;;;5.39;53.46
42411;BME280;28056;51.112;0.984;2022-12-04T08:31:13;100691.95;;;5.43;53.57
42411;BME280;28056;51.112;0.984;2022-12-04T08:33:42;100692.76;;;6.35;52.71
42411;BME280;28056;51.112;0.984;2022-12-04T08:36:14;100691.76;;;5.68;53.21
42411;BME280;28056;51.112;0.984;2022-12-04T08:38:42;100693.07;;;6.25;52.72
42411;BME280;28056;51.112;0.984;2022-12-04T08:41:12;100698.67;;;6.51;52.30
42411;BME280;28056;51.112;0.984;2022-12-04T08:43:40;100699.60;;;6.68;51.84
42411;BME280;28056;51.112;0.984;2022-12-04T08:46:10;100700.97;;;6.15;52.54
42411;BME280;28056;51.112;0.984;2022-12-04T08:48:38;100700.91;;;5.27;54.51
42411;BME280;28056;51.112;0.984;2022-12-04T08:51:07;100700.75;;;4.91;54.40
42411;BME280;28056;51.112;0.984;2022-12-04T08:53:38;100697.34;;;5.58;53.76
42411;BME280;28056;51.112;0.984;2022-12-04T08:56:06;100698.80;;;5.35;54.10
42411;BME280;28056;51.112;0.984;2022-12-04T08:58:35;100695.06;;;5.54;54.28
42411;BME280;28056;51.112;0.984;2022-12-04T09:01:04;100694.68;;;5.66;55.85
42411;BME280;28056;51.112;0.984;2022-12-04T09:03:32;100694.71;;;4.82;55.31
42411;BME280;28056;51.112;0.984;2022-12-04T09:05:59;100696.10;;;5.53;54.47
42411;BME280;28056;51.112;0.984;2022-12-04T09:08:30;100696.01;;;5.08;55.12
42411;BME280;28056;51.112;0.984;2022-12-04T09:11:02;100695.36;;;5.89;54.15
42411;BME280;28056;51.112;0.984;2022-12-04T09:13:31;100700.49;;;5.36;54.67
42411;BME280;28056;51.112;0.984;2022-12-04T09:15:58;100707.24;;;5.83;54.12
42411;BME280;28056;51.112;0.984;2022-12-04T09:18:26;100703.54;;;5.45;54.19
42411;BME280;28056;51.112;0.984;2022-12-04T09:20:55;100702.87;;;6.03;53.13
42411;BME280;28056;51.112;0.984;2022-12-04T09:23:23;100699.12;;;5.41;53.44
42411;BME280;28056;51.112;0.984;2022-12-04T09:25:50;100696.57;;;5.60;52.56
42411;BME280;28056;51.112;0.984;2022-12-04T09:28:19;100693.42;;;5.51;52.70
42411;BME280;28056;51.112;0.984;2022-12-04T09:30:56;100692.94;;;5.28;53.22
42411;BME280;28056;51.112;0.984;2022-12-04T09:33:23;100700.63;;;5.39;53.12
42411;BME280;28056;51.112;0.984;2022-12-04T09:35:50;100700.74;;;5.34;52.72
42411;BME280;28056;51.112;0.984;2022-12-04T09:38:18;100697.88;;;5.49;51.74
42411;BME280;28056;51.112;0.984;2022-12-04T09:40:51;100697.25;;;5.40;52.21
42411;BME280;28056;51.112;0.984;2022-12-04T09:43:30;100696.48;;;5.31;52.87
42411;BME280;28056;51.112;0.984;2022-12-04T09:46:02;100704.75;;;5.49;52.39
42411;BME280;28056;51.112;0.984;2022-12-04T09:48:36;100707.14;;;5.92;51.97
42411;BME280;28056;51.112;0.984;2022-12-04T09:51:05;100705.13;;;5.16;53.01
42411;BME280;28056;51.112;0.984;2022-12-04T09:53:40;100709.27;;;5.97;51.79
42411;BME280;28056;51.112;0.984;2022-12-04T09:56:12;100707.03;;;5.33;52.58
42411;BME280;28056;51.112;0.984;2022-12-04T09:58:44;100706.33;;;5.51;52.35
42411;BME280;28056;51.112;0.984;2022-12-04T10:01:20;100711.55;;;5.85;53.70
42411;BME280;28056;51.112;0.984;2022-12-04T10:03:48;100712.26;;;5.52;52.86
42411;BME280;28056;51.112;0.984;2022-12-04T10:06:19;100714.23;;;5.74;52.63
42411;BME280;28056;51.112;0.984;2022-12-04T10:08:52;100715.66;;;5.84;52.73
42411;BME280;28056;51.112;0.984;2022-12-04T10:11:26;100721.18;;;6.29;51.85
42411;BME280;28056;51.112;0.984;2022-12-04T10:14:09;100718.14;;;6.41;51.06
42411;BME280;28056;51.112;0.984;2022-12-04T10:16:56;100720.20;;;5.33;52.14
42411;BME280;28056;51.112;0.984;2022-12-04T10:19:34;100722.02;;;6.52;51.50
42411;BME280;28056;51.112;0.984;2022-12-04T10:22:11;100720.74;;;6.67;50.92
42411;BME280;28056;51.112;0.984;2022-12-04T10:24:44;100720.38;;;6.67;50.42
42411;BME280;28056;51.112;0.984;2022-12-04T10:27:20;100719.25;;;5.98;50.66
42411;BME280;28056;51.112;0.984;2022-12-04T10:29:51;100722.80;;;5.74;51.36
42411;BME280;28056;51.112;0.984;2022-12-04T10:32:22;100722.74;;;6.16;51.43
42411;BME280;28056;51.112;0.984;2022-12-04T10:34:53;100716.99;;;6.79;51.28
42411;BME280;28056;51.112;0.984;2022-12-04T10:37:23;100717.77;;;6.22;51.46
42411;BME280;28056;51.112;0.984;2022-12-04T10:39:54;100714.97;;;5.71;51.18
42411;BME280;28056;51.112;0.984;2022-12-04T10:42:29;100716.06;;;6.17;51.23
42411;BME280;28056;51.112;0.984;2022-12-04T10:44:58;100717.38;;;5.76;51.19
42411;BME280;28056;51.112;0.984;2022-12-04T10:47:25;100710.50;;;5.49;52.05
42411;BME280;28056;51.112;0.984;2022-12-04T10:49:57;100708.23;;;6.47;51.37
42411;BME280;28056;51.112;0.984;2022-12-04T10:52:24;100703.81;;;5.87;51.00
42411;BME280;28056;51.112;0.984;2022-12-04T10:54:55;100705.46;;;6.55;51.15
42411;BME280;28056;51.112;0.984;2022-12-04T10:57:34;100698.02;;;6.23;51.66
42411;BME280;28056;51.112;0.984;2022-12-04T11:00:04;100694.27;;;6.30;51.73
42411;BME280;28056;51.112;0.984;2022-12-04T11:02:33;100691.09;;;4.95;53.18
42411;BME280;28056;51.112;0.984;2022-12-04T11:05:03;100693.12;;;6.15;52.97
42411;BME280;28056;51.112;0.984;2022-12-04T11:07:34;100690.55;;;5.84;52.87
42411;BME280;28056;51.112;0.984;2022-12-04T11:10:05;100687.39;;;6.12;52.43
42411;BME280;28056;51.112;0.984;2022-12-04T11:12:33;100689.07;;;5.31;53.51
42411;BME280;28056;51.112;0.984;2022-12-04T11:15:13;100689.50;;;6.05;53.03
42411;BME280;28056;51.112;0.984;2022-12-04T11:17:45;100692.18;;;6.32;52.11
42411;BME280;28056;51.112;0.984;2022-12-04T11:20:16;100686.21;;;5.96;52.49
42411;BME280;28056;51.112;0.984;2022-12-04T11:22:50;100686.52;;;6.63;51.80
42411;BME280;28056;51.112;0.984;2022-12-04T11:25:20;100687.28;;;6.40;52.01
42411;BME280;28056;51.112;0.984;2022-12-04T11:27:50;100684.48;;;6.80;51.69
42411;BME280;28056;51.112;0.984;2022-12-04T11:30:20;100683.10;;;5.54;53.62
42411;BME280;28056;51.112;0.984;2022-12-04T11:32:51;100677.73;;;4.92;54.85
42411;BME280;28056;51.112;0.984;2022-12-04T11:35:22;100676.82;;;5.46;53.55
42411;BME280;28056;51.112;0.984;2022-12-04T11:37:53;100674.44;;;5.45;53.91
42411;BME280;28056;51.112;0.984;2022-12-04T11:40:22;100676.79;;;5.81;53.43
42411;BME280;28056;51.112;0.984;2022-12-04T11:43:02;100678.51;;;5.96;52.94
42411;BME280;28056;51.112;0.984;2022-12-04T11:45:31;100674.80;;;5.33;54.36
42411;BME280;28056;51.112;0.984;2022-12-04T11:48:03;100673.57;;;5.25;54.57
42411;BME280;28056;51.112;0.984;2022-12-04T11:50:38;100671.75;;;6.29;53.45
42411;BME280;28056;51.112;0.984;2022-12-04T11:53:14;100666.42;;;5.76;53.14
42411;BME280;28056;51.112;0.984;2022-12-04T11:55:51;100668.82;;;6.60;52.72
42411;BME280;28056;51.112;0.984;2022-12-04T11:58:45;100661.48;;;6.96;51.95
42411;BME280;28056;51.112;0.984;2022-12-04T12:01:26;100662.29;;;6.14;53.61
42411;BME280;28056;51.112;0.984;2022-12-04T12:04:15;100656.49;;;6.77;51.64
42411;BME280;28056;51.112;0.984;2022-12-04T12:06:58;100666.23;;;6.08;52.33
42411;BME280;28056;51.112;0.984;2022-12-04T12:09:34;100664.80;;;5.94;53.40
42411;BME280;28056;51.112;0.984;2022-12-04T12:12:09;100666.60;;;5.40;53.55
42411;BME280;28056;51.112;0.984;2022-12-04T12:14:42;100657.33;;;6.60;51.93
42411;BME280;28056;51.112;0.984;2022-12-04T12:17:19;100660.34;;;6.11;52.46
42411;BME280;28056;51.112;0.984;2022-12-04T12:20:00;100659.52;;;6.37;52.99
42411;BME280;28056;51.112;0.984;2022-12-04T12:22:44;100667.16;;;6.07;53.32
42411;BME280;28056;51.112;0.984;2022-12-04T12:25:19;100664.57;;;6.29;52.24
42411;BME280;28056;51.112;0.984;2022-12-04T12:28:04;100657.62;;;6.55;51.93
42411;BME280;28056;51.112;0.984;2022-12-04T12:30:42;100656.40;;;6.63;52.05
42411;BME280;28056;51.112;0.984;2022-12-04T12:33:17;100658.17;;;6.22;52.86
42411;BME280;28056;51.112;0.984;2022-12-04T12:35:52;100652.40;;;6.65;51.95
42411;BME280;28056;51.112;0.984;2022-12-04T12:38:28;100650.24;;;6.12;52.28
42411;BME280;28056;51.112;0.984;2022-12-04T12:41:03;100643.68;;;6.49;52.33
42411;BME280;28056;51.112;0.984;2022-12-04T12:43:34;100644.99;;;6.28;52.30
42411;BME280;28056;51.112;0.984;2022-12-04T12:46:06;100645.92;;;5.69;52.81
42411;BME280;28056;51.112;0.984;2022-12-04T12:48:42;100639.69;;;6.37;51.80
42411;BME280;28056;51.112;0.984;2022-12-04T12:51:24;100643.85;;;6.46;52.01
42411;BME280;28056;51.112;0.984;2022-12-04T12:53:58;100646.56;;;6.34;51.91
42411;BME280;28056;51.112;0.984;2022-12-04T12:56:32;100646.61;;;6.82;51.42
42411;BME280;28056;51.112;0.984;2022-12-04T12:59:04;100651.52;;;6.32;52.03
42411;BME280;28056;51.112;0.984;2022-12-04T13:01:40;100651.33;;;6.23;53.01
42411;BME280;28056;51.112;0.984;2022-12-04T13:04:13;100648.89;;;5.66;54.46
42411;BME280;28056;51.112;0.984;2022-12-04T13:06:47;100644.76;;;6.49;52.65
42411;BME280;28056;51.112;0.984;2022-12-04T13:09:20;100640.78;;;6.95;52.13
42411;BME280;28056;51.112;0.984;2022-12-04T13:11:50;100641.52;;;6.64;52.20
42411;BME280;28056;51.112;0.984;2022-12-04T13:14:19;100637.31;;;6.76;52.13
42411;BME280;28056;51.112;0.984;2022-12-04T13:16:48;100639.45;;;5.91;52.49
42411;BME280;28056;51.112;0.984;2022-12-04T13:19:21;100637.49;;;5.65;53.21
42411;BME280;28056;51.112;0.984;2022-12-04T13:21:57;100639.58;;;5.94;53.36